Time;durP1;ratioP1;P1;durP2;ratioP2;P2;SDS_P1;SDS_P2;PMS_P1;PMS_P2;Temp;Humidity;BMP_temperature;BMP_pressure;BME280_temperature;BME280_humidity;BME280_pressure;Samples;Min_cycle;Max_cycle;Signal;HPM_P1;HPM_P2
2023/01/26 05:22:32;;;;;;;24.90;8.20;;;;;;;0.69;100.00;100763.44;5088817;28;20328;-63
2023/01/26 05:25:16;;;;;;;28.95;9.15;;;;;;;0.66;100.00;100755.78;5089038;28;20061;-65
2023/01/26 05:27:51;;;;;;;22.67;7.82;;;;;;;0.61;100.00;100755.22;5088721;28;20032;-67
2023/01/26 05:30:17;;;;;;;30.50;9.32;;;;;;;0.63;100.00;100760.38;5087632;28;20036;-66
2023/01/26 05:32:43;;;;;;;25.20;8.90;;;;;;;0.43;100.00;100757.22;5087675;28;20046;-67
2023/01/26 05:35:08;;;;;;;18.20;7.97;;;;;;;0.56;100.00;100759.91;5087905;28;20033;-62
2023/01/26 05:37:34;;;;;;;27.92;8.18;;;;;;;0.48;100.00;100759.56;5087174;28;20432;-60
2023/01/26 05:40:00;;;;;;;26.95;9.55;;;;;;;0.51;100.00;100762.81;5087580;28;20040;-62
2023/01/26 05:42:26;;;;;;;23.10;7.93;;;;;;;0.40;100.00;100748.72;5088631;28;20396;-62
2023/01/26 05:45:08;;;;;;;17.40;7.55;;;;;;;0.33;100.00;100761.38;5088855;28;20154;-61
2023/01/26 05:47:36;;;;;;;19.10;7.75;;;;;;;0.48;100.00;100762.19;5086947;28;20420;-63
2023/01/26 05:50:01;;;;;;;19.63;8.77;;;;;;;0.45;100.00;100759.75;5087353;28;20036;-62
2023/01/26 05:52:30;;;;;;;19.55;7.25;;;;;;;0.42;100.00;100744.22;5087243;28;20044;-58
2023/01/26 05:54:55;;;;;;;23.55;8.07;;;;;;;0.55;100.00;100753.00;5086930;28;20404;-63
2023/01/26 05:57:22;;;;;;;16.83;7.43;;;;;;;0.42;100.00;100758.16;5086719;28;20039;-63
2023/01/26 05:59:52;;;;;;;17.88;7.85;;;;;;;0.46;100.00;100753.59;5087298;28;20047;-63
2023/01/26 06:02:18;;;;;;;19.10;8.10;;;;;;;0.54;100.00;100752.16;5087116;28;20127;-63
2023/01/26 06:04:44;;;;;;;21.00;8.10;;;;;;;0.48;100.00;100756.94;5087169;28;20082;-63
2023/01/26 06:07:09;;;;;;;18.02;7.75;;;;;;;0.44;100.00;100752.81;5087947;28;20123;-66
2023/01/26 06:09:44;;;;;;;23.45;8.95;;;;;;;0.55;100.00;100758.25;5086909;28;20093;-62
2023/01/26 06:12:34;;;;;;;20.65;7.47;;;;;;;0.58;100.00;100755.41;5088122;28;20121;-64
2023/01/26 06:15:06;;;;;;;20.92;7.68;;;;;;;0.60;100.00;100755.34;5086852;28;20067;-63
2023/01/26 06:17:41;;;;;;;13.93;6.30;;;;;;;0.65;100.00;100764.59;5086419;28;20036;-62
2023/01/26 06:20:11;;;;;;;16.05;7.32;;;;;;;0.59;100.00;100765.00;5087879;28;20042;-62
2023/01/26 06:22:36;;;;;;;18.70;6.47;;;;;;;0.63;100.00;100758.59;5086572;28;20044;-62
2023/01/26 06:25:02;;;;;;;15.18;6.93;;;;;;;0.52;100.00;100763.66;5087854;28;20473;-64
2023/01/26 06:27:28;;;;;;;16.48;7.68;;;;;;;0.54;100.00;100767.06;5086254;28;20463;-63
2023/01/26 06:29:54;;;;;;;17.85;6.70;;;;;;;0.54;100.00;100761.81;5086610;28;20064;-66
2023/01/26 06:32:20;;;;;;;15.70;6.18;;;;;;;0.58;100.00;100765.06;5065093;28;20497;-62
2023/01/26 06:34:52;;;;;;;15.30;6.15;;;;;;;0.55;100.00;100771.34;5074623;28;20037;-66
2023/01/26 06:37:18;;;;;;;17.42;6.93;;;;;;;0.48;100.00;100772.69;5072573;28;20039;-65
2023/01/26 06:39:45;;;;;;;17.23;7.70;;;;;;;0.46;100.00;100764.06;5072818;28;20520;-63
2023/01/26 06:42:11;;;;;;;19.30;7.28;;;;;;;0.33;100.00;100765.78;5072773;28;20119;-64
2023/01/26 06:44:37;;;;;;;14.80;5.78;;;;;;;0.39;100.00;100765.38;5072772;28;20043;-64
2023/01/26 06:47:04;;;;;;;19.98;7.60;;;;;;;0.41;100.00;100766.13;5072378;28;20037;-62
2023/01/26 06:49:30;;;;;;;14.00;6.68;;;;;;;0.49;100.00;100771.75;5072610;28;20124;-62
2023/01/26 06:52:27;;;;;;;18.20;6.68;;;;;;;0.22;100.00;100782.16;5072726;28;20223;-64
2023/01/26 06:54:58;;;;;;;17.17;6.55;;;;;;;0.30;100.00;100789.53;5068336;28;20051;-62
2023/01/26 06:57:42;;;;;;;18.92;7.43;;;;;;;0.35;100.00;100775.22;5073524;28;20058;-63
2023/01/26 07:00:38;;;;;;;16.00;6.72;;;;;;;0.32;100.00;100770.16;5072472;28;20093;-60
2023/01/26 07:03:12;;;;;;;17.00;6.47;;;;;;;0.33;100.00;100789.38;5073996;28;20044;-63
2023/01/26 07:05:37;;;;;;;16.92;6.78;;;;;;;0.38;100.00;100785.50;5073649;28;20058;-65
2023/01/26 07:08:05;;;;;;;17.67;6.32;;;;;;;0.33;100.00;100778.88;5072102;28;20028;-66
2023/01/26 07:10:30;;;;;;;15.40;6.28;;;;;;;0.34;100.00;100786.66;5073497;28;20481;-64
2023/01/26 07:12:56;;;;;;;13.52;6.18;;;;;;;0.34;100.00;100785.81;5073566;28;20086;-65
2023/01/26 07:15:22;;;;;;;14.82;7.38;;;;;;;0.21;100.00;100789.19;5072155;28;20032;-66
2023/01/26 07:17:47;;;;;;;23.88;7.07;;;;;;;0.18;100.00;100786.72;5071867;28;20117;-65
2023/01/26 07:20:13;;;;;;;16.55;6.40;;;;;;;0.22;100.00;100790.00;5073019;28;20037;-64
2023/01/26 07:22:38;;;;;;;22.48;7.55;;;;;;;0.23;100.00;100789.91;5073464;28;20052;-63
2023/01/26 07:25:04;;;;;;;15.50;6.25;;;;;;;0.18;100.00;100788.50;5073269;28;20044;-65
2023/01/26 07:27:29;;;;;;;16.80;6.80;;;;;;;0.17;100.00;100785.03;5072415;28;20417;-65
2023/01/26 07:29:55;;;;;;;14.88;7.47;;;;;;;0.29;100.00;100787.84;5072248;28;20041;-65
2023/01/26 07:32:20;;;;;;;12.35;4.93;;;;;;;0.28;100.00;100791.41;5073064;28;20044;-65
2023/01/26 07:34:47;;;;;;;15.20;5.55;;;;;;;0.26;100.00;100800.22;5073287;28;20492;-67
2023/01/26 07:37:12;;;;;;;23.10;7.78;;;;;;;0.31;100.00;100797.31;5072802;28;20028;-65
2023/01/26 07:39:37;;;;;;;16.98;6.13;;;;;;;0.28;100.00;100788.81;5072982;28;20542;-68
2023/01/26 07:42:03;;;;;;;14.73;5.97;;;;;;;0.22;100.00;100803.13;5072999;28;20059;-65
2023/01/26 07:44:54;;;;;;;13.75;5.57;;;;;;;0.26;100.00;100794.97;5058231;28;20055;-64
2023/01/26 07:47:20;;;;;;;16.15;5.53;;;;;;;0.31;100.00;100791.22;5072612;28;20040;-59
2023/01/26 07:49:46;;;;;;;15.82;6.97;;;;;;;0.30;100.00;100795.63;5072803;28;20047;-57
2023/01/26 07:52:11;;;;;;;14.05;6.07;;;;;;;0.28;100.00;100786.19;5072783;28;20126;-66
2023/01/26 07:54:37;;;;;;;11.68;5.00;;;;;;;0.20;100.00;100790.13;5073079;28;20111;-65
2023/01/26 07:57:05;;;;;;;17.33;6.70;;;;;;;0.25;100.00;100797.66;5071314;28;20471;-65
2023/01/26 07:59:31;;;;;;;16.15;5.90;;;;;;;0.30;100.00;100800.03;5072623;28;20401;-65
2023/01/26 08:01:56;;;;;;;18.48;5.80;;;;;;;0.18;100.00;100805.06;5072663;28;20050;-65
2023/01/26 08:04:22;;;;;;;14.00;6.35;;;;;;;0.31;100.00;100796.47;5071356;28;20036;-66
2023/01/26 08:06:50;;;;;;;20.73;7.63;;;;;;;0.34;100.00;100806.78;5072279;28;20048;-65
2023/01/26 08:09:15;;;;;;;;;;;;;;;0.30;100.00;100805.25;5072611;28;20404;-65
2023/01/26 08:11:41;;;;;;;11.65;5.85;;;;;;;0.22;100.00;100809.19;5072358;28;19920;-65
2023/01/26 08:14:06;;;;;;;19.45;6.72;;;;;;;0.26;100.00;100815.06;5072274;28;20068;-65
2023/01/26 08:16:31;;;;;;;12.75;6.80;;;;;;;0.17;100.00;100810.41;5072191;28;20056;-65
2023/01/26 08:18:57;;;;;;;16.83;6.00;;;;;;;0.05;100.00;100804.13;5072060;28;20374;-65
2023/01/26 08:21:23;;;;;;;12.07;5.50;;;;;;;0.17;100.00;100810.41;5072306;28;20035;-65
2023/01/26 08:23:49;;;;;;;14.93;5.80;;;;;;;0.17;100.00;100806.00;5072318;28;20068;-64
2023/01/26 08:26:16;;;;;;;16.33;6.30;;;;;;;0.24;100.00;100809.09;5071061;28;20491;-65
2023/01/26 08:28:42;;;;;;;15.38;6.18;;;;;;;0.12;100.00;100813.28;5071840;28;20032;-65
2023/01/26 08:31:11;;;;;;;15.63;6.95;;;;;;;0.08;100.00;100813.59;5071862;28;20094;-65
2023/01/26 08:33:37;;;;;;;12.52;5.82;;;;;;;0.20;100.00;100816.31;5071980;28;20116;-64
2023/01/26 08:36:05;;;;;;;16.40;6.00;;;;;;;0.27;100.00;100822.03;5071900;28;20048;-66
2023/01/26 08:38:31;;;;;;;15.52;6.13;;;;;;;0.26;100.00;100817.69;5071601;28;20033;-66
2023/01/26 08:40:58;;;;;;;15.88;5.80;;;;;;;0.21;100.00;100809.31;5071902;28;20048;-65
2023/01/26 08:43:23;;;;;;;18.35;6.75;;;;;;;0.19;100.00;100814.59;5071801;28;20064;-65
2023/01/26 08:45:49;;;;;;;14.13;5.60;;;;;;;0.18;100.00;100812.94;5071568;28;20121;-65
2023/01/26 08:48:14;;;;;;;13.75;6.07;;;;;;;0.18;100.00;100810.31;5071371;28;20040;-65
2023/01/26 08:50:40;;;;;;;12.90;6.30;;;;;;;0.30;100.00;100807.88;5071632;28;20043;-65
2023/01/26 08:53:05;;;;;;;15.73;6.10;;;;;;;0.36;100.00;100818.00;5071794;28;20382;-65
2023/01/26 08:55:31;;;;;;;15.13;6.65;;;;;;;0.39;100.00;100817.78;5071401;28;20032;-65
2023/01/26 08:57:57;;;;;;;13.88;5.75;;;;;;;0.38;100.00;100806.47;5070171;28;20059;-65
2023/01/26 09:00:23;;;;;;;14.57;6.35;;;;;;;0.35;100.00;100818.94;5071549;28;20504;-65
2023/01/26 09:02:49;;;;;;;15.30;7.13;;;;;;;0.40;100.00;100820.34;5071622;28;20036;-64
2023/01/26 09:05:15;;;;;;;14.50;5.30;;;;;;;0.39;100.00;100816.03;5071476;28;20040;-65
2023/01/26 09:07:40;;;;;;;10.63;5.50;;;;;;;0.36;100.00;100815.38;5071150;28;20051;-64
2023/01/26 09:10:07;;;;;;;10.52;5.40;;;;;;;0.30;100.00;100826.22;5071484;28;20094;-65
2023/01/26 09:12:32;;;;;;;15.13;5.18;;;;;;;0.29;100.00;100822.78;5071439;28;20044;-65
2023/01/26 09:14:57;;;;;;;8.93;4.50;;;;;;;0.21;100.00;100819.78;5070199;28;20041;-65
2023/01/26 09:17:23;;;;;;;10.20;5.20;;;;;;;0.23;100.00;100816.13;5071087;28;20693;-66
2023/01/26 09:19:48;;;;;;;16.77;5.75;;;;;;;0.24;100.00;100812.56;5071492;28;20131;-65
2023/01/26 09:22:14;;;;;;;11.75;4.78;;;;;;;0.24;100.00;100820.41;5071422;28;20139;-65
2023/01/26 09:24:39;;;;;;;9.95;4.57;;;;;;;0.31;100.00;100823.50;5071415;28;20041;-65
2023/01/26 09:27:04;;;;;;;10.23;4.90;;;;;;;0.26;100.00;100825.56;5071155;28;20040;-65
2023/01/26 09:29:30;;;;;;;8.55;4.75;;;;;;;0.31;100.00;100825.28;5071229;28;20563;-65
2023/01/26 09:31:55;;;;;;;9.80;3.67;;;;;;;0.20;100.00;100816.31;5071303;28;20040;-65
2023/01/26 09:34:21;;;;;;;13.10;5.05;;;;;;;0.31;100.00;100822.66;5071293;28;20460;-65
2023/01/26 09:36:46;;;;;;;7.72;4.18;;;;;;;0.31;100.00;100820.03;5071055;28;20037;-66
2023/01/26 09:39:11;;;;;;;8.48;4.25;;;;;;;0.38;100.00;100827.44;5053045;28;20117;-65
2023/01/26 09:42:05;;;;;;;11.98;5.30;;;;;;;0.39;100.00;100817.78;5071190;28;20115;-65
2023/01/26 09:44:40;;;;;;;6.20;3.53;;;;;;;0.28;100.00;100815.84;5071178;28;20036;-62
2023/01/26 09:47:15;;;;;;;11.07;4.88;;;;;;;0.18;100.00;100819.94;5070888;28;20040;-65
2023/01/26 09:49:55;;;;;;;7.22;3.63;;;;;;;0.24;100.00;100823.03;5071262;28;20036;-65
2023/01/26 09:52:32;;;;;;;5.13;3.15;;;;;;;0.34;100.00;100823.34;5071069;28;20109;-65
2023/01/26 09:55:00;;;;;;;10.20;4.50;;;;;;;0.38;100.00;100826.59;5071278;28;20044;-65
2023/01/26 09:57:36;;;;;;;10.80;4.50;;;;;;;0.36;100.00;100823.22;5070733;28;20132;-65
2023/01/26 10:00:08;;;;;;;10.23;4.90;;;;;;;0.45;100.00;100820.03;5071162;28;20040;-66
2023/01/26 10:02:48;;;;;;;8.60;4.55;;;;;;;0.45;100.00;100826.13;5070145;28;20385;-65
2023/01/26 10:05:21;;;;;;;8.75;4.50;;;;;;;0.52;100.00;100822.22;5071014;28;20102;-67
2023/01/26 10:07:47;;;;;;;8.18;4.35;;;;;;;0.42;100.00;100823.69;5072024;28;20214;-65
2023/01/26 10:10:23;;;;;;;7.43;3.67;;;;;;;0.47;100.00;100823.44;5073416;28;20132;-66
2023/01/26 10:12:50;;;;;;;7.53;3.65;;;;;;;0.50;100.00;100825.84;5074838;28;20098;-65
2023/01/26 10:15:37;;;;;;;7.30;4.32;;;;;;;0.42;100.00;100828.94;5074842;28;20036;-65
2023/01/26 10:18:15;;;;;;;9.20;4.43;;;;;;;0.42;100.00;100823.69;5075195;28;20118;-65
2023/01/26 10:20:46;;;;;;;10.80;4.60;;;;;;;0.33;99.93;100823.44;5074780;28;20481;-65
2023/01/26 10:23:25;;;;;;;11.25;5.20;;;;;;;0.42;99.41;100822.84;5075439;28;20032;-66
2023/01/26 10:25:55;;;;;;;9.52;5.28;;;;;;;0.38;99.72;100813.50;5075549;28;20390;-66
2023/01/26 10:28:26;;;;;;;8.90;4.35;;;;;;;0.27;100.00;100819.41;5074709;28;20125;-65
2023/01/26 10:30:51;;;;;;;9.88;4.00;;;;;;;0.40;100.00;100816.88;5074600;28;20043;-65
2023/01/26 10:33:23;;;;;;;7.00;3.60;;;;;;;0.38;100.00;100814.34;5074551;28;20029;-66
2023/01/26 10:35:49;;;;;;;6.63;3.85;;;;;;;0.34;100.00;100804.16;5074397;28;20500;-66
2023/01/26 10:38:33;;;;;;;7.72;4.13;;;;;;;0.26;100.00;100804.59;5073976;28;20040;-65
2023/01/26 10:41:13;;;;;;;8.73;4.25;;;;;;;0.28;100.00;100801.91;5074214;28;20040;-64
2023/01/26 10:43:54;;;;;;;6.57;4.10;;;;;;;0.26;100.00;100797.59;5074310;28;20473;-65
2023/01/26 10:46:27;;;;;;;8.30;4.65;;;;;;;0.20;100.00;100799.75;5074406;28;20505;-65
2023/01/26 10:48:54;;;;;;;8.98;4.03;;;;;;;0.30;100.00;100810.50;5074502;28;20086;-64
2023/01/26 10:51:26;;;;;;;9.70;3.78;;;;;;;0.29;100.00;100800.97;5074417;28;20033;-65
2023/01/26 10:54:11;;;;;;;7.68;3.15;;;;;;;0.39;100.00;100800.31;5074524;28;20055;-65
2023/01/26 10:56:43;;;;;;;5.75;3.63;;;;;;;0.42;100.00;100788.78;5074201;28;20419;-64
2023/01/26 10:59:09;;;;;;;6.45;3.60;;;;;;;0.48;100.00;100781.38;5073741;28;20058;-65
2023/01/26 11:01:51;;;;;;;7.53;2.80;;;;;;;0.43;100.00;100785.22;5074029;28;20451;-65
2023/01/26 11:04:17;;;;;;;7.68;3.63;;;;;;;0.47;100.00;100778.88;5073235;28;20126;-66
2023/01/26 11:06:42;;;;;;;4.72;2.97;;;;;;;0.43;100.00;100772.13;5073953;28;20040;-66
2023/01/26 11:09:15;;;;;;;5.25;2.72;;;;;;;0.54;100.00;100788.03;5073396;28;20032;-65
2023/01/26 11:11:54;;;;;;;5.90;2.70;;;;;;;0.58;100.00;100779.00;5073725;28;20055;-64
2023/01/26 11:14:19;;;;;;;4.72;3.30;;;;;;;0.47;100.00;100776.25;5073970;28;20115;-65
2023/01/26 11:16:52;;;;;;;5.10;3.35;;;;;;;0.46;100.00;100774.56;5074036;28;20033;-64
2023/01/26 11:19:49;;;;;;;8.38;3.65;;;;;;;0.55;100.00;100766.09;5073745;28;20127;-65
2023/01/26 11:22:22;;;;;;;2.63;2.20;;;;;;;0.60;100.00;100764.03;5073735;28;20035;-65
2023/01/26 11:25:06;;;;;;;6.05;3.13;;;;;;;0.62;100.00;100767.41;5074183;28;20035;-64
2023/01/26 11:27:44;;;;;;;7.28;3.75;;;;;;;0.61;100.00;100770.97;5073767;28;20481;-64
2023/01/26 11:30:44;;;;;;;6.75;3.28;;;;;;;0.42;100.00;100767.81;5073871;28;20055;-65
2023/01/26 11:33:56;;;;;;;4.18;2.60;;;;;;;0.46;100.00;100764.06;5066090;28;20056;-65
2023/01/26 11:36:52;;;;;;;6.28;2.33;;;;;;;0.39;100.00;100763.63;5069091;28;20492;-66
2023/01/26 11:40:04;;;;;;;5.18;2.75;;;;;;;0.41;100.00;100759.13;5072848;28;20039;-64
2023/01/26 11:42:54;;;;;;;2.80;1.88;;;;;;;0.31;100.00;100759.78;5035341;28;20074;-65
2023/01/26 11:45:19;;;;;;;6.32;2.97;;;;;;;0.25;100.00;100756.59;5072811;28;20093;-64
2023/01/26 11:47:59;;;;;;;5.40;2.90;;;;;;;0.32;100.00;100758.81;5072494;28;20032;-64
2023/01/26 11:50:42;;;;;;;4.60;2.85;;;;;;;0.27;100.00;100751.28;5072791;28;20050;-65
2023/01/26 11:53:36;;;;;;;4.30;3.42;;;;;;;0.27;100.00;100748.66;5072886;28;20032;-63
2023/01/26 11:56:24;;;;;;;5.47;3.47;;;;;;;0.30;100.00;100748.44;5072811;28;20111;-64
2023/01/26 11:59:03;;;;;;;4.28;3.88;;;;;;;0.13;100.00;100749.50;5043062;28;20513;-63
2023/01/26 12:01:35;;;;;;;7.18;3.72;;;;;;;0.11;100.00;100740.88;5071424;28;20119;-64
2023/01/26 12:04:01;;;;;;;5.60;2.90;;;;;;;0.14;100.00;100743.31;5072819;28;20097;-65
2023/01/26 12:06:39;;;;;;;6.18;2.97;;;;;;;0.14;100.00;100740.72;5071541;28;20044;-63
2023/01/26 12:09:31;;;;;;;4.10;2.92;;;;;;;0.22;100.00;100745.47;5073026;28;20127;-65
2023/01/26 12:12:22;;;;;;;5.60;3.08;;;;;;;0.22;100.00;100738.44;5072620;28;20119;-66
2023/01/26 12:15:21;;;;;;;5.13;2.05;;;;;;;0.30;100.00;100731.88;5072553;28;20097;-64
2023/01/26 12:18:01;;;;;;;5.50;2.55;;;;;;;0.35;100.00;100727.19;5072414;28;20405;-63
2023/01/26 12:20:26;;;;;;;5.03;3.00;;;;;;;0.31;100.00;100721.28;5072463;28;20036;-65
2023/01/26 12:23:07;;;;;;;4.10;2.72;;;;;;;0.38;100.00;100727.84;5072952;28;20033;-65
2023/01/26 12:25:40;;;;;;;3.67;2.70;;;;;;;0.33;100.00;100715.97;5072731;28;20032;-64
2023/01/26 12:28:25;;;;;;;6.35;2.53;;;;;;;0.37;100.00;100717.47;5072113;28;20033;-64
2023/01/26 12:31:21;;;;;;;3.45;2.45;;;;;;;0.28;100.00;100712.81;5071656;28;20033;-64
2023/01/26 12:33:50;;;;;;;4.05;2.88;;;;;;;0.25;100.00;100705.97;5072269;28;20386;-63
2023/01/26 12:36:25;;;;;;;6.40;2.70;;;;;;;0.35;100.00;100703.63;5071914;28;20495;-64
2023/01/26 12:39:19;;;;;;;7.75;3.35;;;;;;;0.37;100.00;100691.25;5072023;28;20041;-61
2023/01/26 12:42:00;;;;;;;7.45;2.97;;;;;;;0.35;100.00;100703.63;5072416;28;20132;-64
2023/01/26 12:44:49;;;;;;;3.83;3.05;;;;;;;0.37;100.00;100699.09;5071857;28;20040;-65
2023/01/26 12:47:21;;;;;;;3.15;2.67;;;;;;;0.39;100.00;100689.34;5061884;28;20048;-65
2023/01/26 12:49:57;;;;;;;2.55;2.35;;;;;;;0.40;100.00;100688.44;5071740;28;20044;-65
2023/01/26 12:52:36;;;;;;;4.00;2.88;;;;;;;0.40;100.00;100691.91;5071472;28;20036;-65
2023/01/26 12:55:22;;;;;;;6.43;2.75;;;;;;;0.44;100.00;100684.66;5071801;28;20040;-63
2023/01/26 12:57:55;;;;;;;2.75;2.42;;;;;;;0.48;100.00;100686.16;5071340;28;20048;-66
2023/01/26 13:00:29;;;;;;;6.25;3.08;;;;;;;0.48;100.00;100684.38;5070562;28;20116;-67
2023/01/26 13:03:13;;;;;;;6.40;3.10;;;;;;;0.49;99.92;100682.59;5071497;28;20470;-64
2023/01/26 13:05:53;;;;;;;2.78;2.33;;;;;;;0.42;97.74;100683.94;5071621;28;20371;-65
2023/01/26 13:08:30;;;;;;;6.32;3.22;;;;;;;0.48;97.33;100684.38;5071198;28;20028;-65
2023/01/26 13:11:03;;;;;;;3.60;2.17;;;;;;;0.48;97.25;100687.00;5071427;28;20679;-65
2023/01/26 13:13:31;;;;;;;5.35;3.22;;;;;;;0.53;98.20;100681.47;5071523;28;20028;-66
2023/01/26 13:16:15;;;;;;;8.18;2.92;;;;;;;0.56;96.34;100686.50;5071373;28;20033;-66
2023/01/26 13:18:54;;;;;;;3.67;2.40;;;;;;;0.65;96.26;100680.69;5069841;28;20113;-65
2023/01/26 13:21:26;;;;;;;2.30;2.10;;;;;;;0.65;93.44;100671.97;5059993;28;20584;-64
2023/01/26 13:23:52;;;;;;;6.63;2.35;;;;;;;0.66;91.82;100682.38;5060646;28;20032;-64
2023/01/26 13:26:40;;;;;;;4.22;2.42;;;;;;;0.68;93.56;100683.09;5061995;28;20182;-64
2023/01/26 13:29:23;;;;;;;5.95;2.75;;;;;;;0.63;90.60;100676.47;5060143;28;20032;-66
2023/01/26 13:31:53;;;;;;;4.25;2.78;;;;;;;0.54;91.88;100675.28;5060844;28;20037;-65
2023/01/26 13:34:35;;;;;;;5.13;2.45;;;;;;;0.64;92.02;100684.22;5060100;28;20032;-66
2023/01/26 13:37:21;;;;;;;3.22;2.40;;;;;;;0.64;92.44;100679.00;5059659;28;20037;-66
2023/01/26 13:40:02;;;;;;;4.20;2.80;;;;;;;0.60;92.54;100680.16;5060480;28;20114;-65
2023/01/26 13:42:50;;;;;;;6.57;2.45;;;;;;;0.54;92.94;100684.00;5061095;28;20437;-64
2023/01/26 13:45:26;;;;;;;5.20;2.75;;;;;;;0.50;92.52;100686.91;5064786;28;20036;-65
2023/01/26 13:47:55;;;;;;;4.75;2.30;;;;;;;0.49;91.80;100686.06;5064852;28;20040;-65
2023/01/26 13:50:30;;;;;;;4.40;2.20;;;;;;;0.58;93.84;100684.63;5064292;28;20431;-65
2023/01/26 13:52:57;;;;;;;2.60;2.20;;;;;;;0.64;91.77;100692.09;5055217;28;20045;-66
2023/01/26 13:55:29;;;;;;;3.05;2.53;;;;;;;0.57;91.68;100677.72;5055032;28;20044;-65
2023/01/26 13:58:16;;;;;;;5.13;3.08;;;;;;;0.57;93.00;100677.72;5054818;28;20140;-65
2023/01/26 14:00:42;;;;;;;3.13;2.17;;;;;;;0.63;92.68;100687.78;5055184;28;20029;-65
2023/01/26 14:03:20;;;;;;;5.97;2.42;;;;;;;0.74;92.91;100685.34;5054406;28;20056;-65
2023/01/26 14:05:52;;;;;;;3.28;2.13;;;;;;;0.69;91.85;100686.56;5053343;28;20186;-66
2023/01/26 14:08:21;;;;;;;4.35;2.70;;;;;;;0.68;90.76;100688.34;5054341;28;20090;-65
2023/01/26 14:10:46;;;;;;;4.32;2.85;;;;;;;0.69;89.39;100689.19;5054570;28;20045;-65
2023/01/26 14:13:27;;;;;;;1.77;1.63;;;;;;;0.56;89.52;100696.16;5053611;28;20045;-65
2023/01/26 14:15:58;;;;;;;3.03;2.50;;;;;;;0.52;90.65;100696.38;5054664;28;20033;-64
2023/01/26 14:18:24;;;;;;;3.92;2.55;;;;;;;0.46;90.46;100701.16;5054217;28;20112;-65
2023/01/26 14:20:56;;;;;;;2.97;2.35;;;;;;;0.46;91.14;100693.31;5054431;28;20025;-65
2023/01/26 14:23:22;;;;;;;4.63;3.40;;;;;;;0.46;90.97;100698.53;5054402;28;20052;-65
2023/01/26 14:25:57;;;;;;;4.07;2.00;;;;;;;0.45;89.01;100702.91;5054360;28;20040;-64
2023/01/26 14:28:27;;;;;;;2.83;2.53;;;;;;;0.46;90.16;100706.41;5054276;28;20052;-65
2023/01/26 14:31:00;;;;;;;1.95;1.58;;;;;;;0.40;89.37;100697.16;5054590;28;20060;-64
2023/01/26 14:33:26;;;;;;;2.30;1.67;;;;;;;0.50;88.26;100702.63;5054535;28;20037;-64
2023/01/26 14:36:00;;;;;;;3.38;2.67;;;;;;;0.51;88.58;100701.69;5062531;28;20119;-62
2023/01/26 14:38:27;;;;;;;5.25;2.97;;;;;;;0.58;87.85;100702.97;5074172;28;20056;-65
2023/01/26 14:40:55;;;;;;;3.92;3.00;;;;;;;0.52;86.46;100711.22;5074259;28;20032;-63
2023/01/26 14:43:21;;;;;;;;;;;;;;;0.57;85.89;100713.56;5074693;28;20457;-63
2023/01/26 14:45:57;;;;;;;3.22;2.72;;;;;;;0.45;87.38;100718.66;5074132;28;19944;-64
2023/01/26 14:48:28;;;;;;;4.38;2.80;;;;;;;0.25;89.30;100704.19;5073916;28;20037;-65
2023/01/26 14:50:53;;;;;;;5.00;2.50;;;;;;;0.43;89.67;100711.81;5073935;28;20040;-64
2023/01/26 14:53:21;;;;;;;4.53;2.85;;;;;;;0.44;90.97;100714.34;5073628;28;20486;-65
2023/01/26 14:55:48;;;;;;;3.92;2.13;;;;;;;0.38;90.68;100703.41;5073863;28;20477;-65
2023/01/26 14:58:24;;;;;;;3.75;2.03;;;;;;;0.48;89.34;100707.16;5073528;28;20481;-66
2023/01/26 15:00:50;;;;;;;3.15;2.33;;;;;;;0.46;90.81;100714.28;5070386;28;20047;-65
2023/01/26 15:03:37;;;;;;;2.70;2.10;;;;;;;0.46;90.43;100716.91;5053592;28;20471;-65
2023/01/26 15:06:14;;;;;;;4.78;2.83;;;;;;;0.46;90.03;100716.91;5037318;28;20114;-65
2023/01/26 15:08:41;;;;;;;2.33;2.08;;;;;;;0.32;90.95;100719.50;5053319;28;20111;-66
2023/01/26 15:13:54;;;;;;;4.00;2.90;;;;;;;0.36;92.03;100728.88;5054673;28;20048;-66
2023/01/26 15:16:24;;;;;;;5.35;2.38;;;;;;;0.25;92.54;100727.75;5054422;28;20025;-65
2023/01/26 15:19:07;;;;;;;5.47;2.25;;;;;;;0.07;91.73;100726.31;5052405;28;20025;-65
2023/01/26 15:21:44;;;;;;;3.67;2.60;;;;;;;0.12;93.00;100731.25;5053290;28;20478;-65
2023/01/26 15:24:13;;;;;;;4.97;3.30;;;;;;;0.05;92.60;100728.16;5054571;28;20066;-64
2023/01/26 15:26:39;;;;;;;3.38;2.65;;;;;;;0.12;92.90;100737.31;5054713;28;20076;-65
2023/01/26 15:29:19;;;;;;;4.55;3.15;;;;;;;0.10;92.91;100738.34;5053474;28;20044;-65
2023/01/26 15:31:51;;;;;;;3.85;2.47;;;;;;;0.06;94.06;100740.31;5054208;28;20449;-65
2023/01/26 15:34:31;;;;;;;5.40;3.17;;;;;;;0.08;92.76;100742.88;5054048;28;20032;-67
2023/01/26 15:36:57;;;;;;;5.55;3.03;;;;;;;0.05;94.23;100733.41;5053450;28;20053;-66
2023/01/26 15:39:23;;;;;;;5.85;3.30;;;;;;;0.12;92.21;100739.09;5053289;28;20041;-66
2023/01/26 15:42:19;;;;;;;6.00;3.03;;;;;;;0.04;93.37;100743.97;5054153;28;20033;-66
2023/01/26 15:44:45;;;;;;;4.72;2.38;;;;;;;0.01;93.46;100744.19;5053861;28;20032;-66
2023/01/26 15:47:11;;;;;;;3.63;2.28;;;;;;;-0.14;93.16;100738.91;5052955;28;20383;-65
2023/01/26 15:49:36;;;;;;;4.63;3.30;;;;;;;-0.16;93.90;100732.94;5053945;28;20112;-64
2023/01/26 15:52:03;;;;;;;4.82;3.17;;;;;;;-0.12;94.06;100742.31;5054563;28;20037;-64
2023/01/26 15:54:28;;;;;;;5.25;3.33;;;;;;;-0.14;94.73;100738.91;5053765;28;20406;-65
2023/01/26 15:56:54;;;;;;;4.53;3.28;;;;;;;-0.15;94.92;100741.63;5053008;28;20049;-64
2023/01/26 15:59:19;;;;;;;4.78;3.45;;;;;;;-0.17;93.84;100733.03;5052647;28;20110;-66
2023/01/26 16:01:45;;;;;;;5.82;3.38;;;;;;;-0.04;93.59;100747.06;5051562;28;20474;-65
2023/01/26 16:04:13;;;;;;;6.95;3.58;;;;;;;-0.20;94.46;100743.69;5051674;28;20083;-66
2023/01/26 16:06:39;;;;;;;3.97;2.53;;;;;;;-0.19;94.30;100748.84;5051938;28;20080;-64
2023/01/26 16:09:04;;;;;;;6.63;3.65;;;;;;;-0.20;94.24;100738.44;5051233;28;20139;-66
2023/01/26 16:11:39;;;;;;;4.18;2.92;;;;;;;-0.11;93.10;100748.38;5052785;28;20040;-67
2023/01/26 16:14:06;;;;;;;6.32;3.42;;;;;;;-0.11;92.86;100741.34;5052741;28;20458;-65
2023/01/26 16:16:32;;;;;;;6.77;4.13;;;;;;;-0.16;92.94;100737.34;5051402;28;20032;-66
2023/01/26 16:18:58;;;;;;;5.25;3.45;;;;;;;-0.18;93.63;100740.06;5052443;28;20048;-65
2023/01/26 16:21:30;;;;;;;6.82;3.45;;;;;;;-0.11;92.74;100738.75;5052755;28;20116;-65
2023/01/26 16:23:56;;;;;;;4.32;2.67;;;;;;;-0.17;92.46;100733.03;5052446;28;20067;-65
2023/01/26 16:26:21;;;;;;;3.22;2.28;;;;;;;-0.24;93.28;100727.31;5052228;28;20048;-65
2023/01/26 16:28:47;;;;;;;5.75;2.95;;;;;;;-0.20;94.28;100720.09;5051969;28;20053;-66
2023/01/26 16:31:21;;;;;;;3.83;2.75;;;;;;;-0.16;94.93;100734.72;5052447;28;20037;-66
2023/01/26 16:33:47;;;;;;;3.40;3.08;;;;;;;-0.20;95.32;100734.03;5052766;28;20485;-66
2023/01/26 16:36:14;;;;;;;7.50;3.20;;;;;;;-0.17;93.29;100733.03;5052602;28;20036;-66
2023/01/26 16:38:41;;;;;;;5.47;4.43;;;;;;;-0.11;95.30;100737.91;5051563;28;20035;-66
2023/01/26 16:41:12;;;;;;;7.22;3.30;;;;;;;-0.12;92.21;100736.22;5052426;28;20035;-66
2023/01/26 16:43:40;;;;;;;4.22;2.92;;;;;;;-0.18;91.71;100731.34;5050967;28;20547;-66
2023/01/26 16:46:06;;;;;;;4.90;2.72;;;;;;;-0.31;92.45;100731.25;5052088;28;20111;-65
2023/01/26 16:48:33;;;;;;;7.13;3.28;;;;;;;-0.16;90.61;100737.34;5051771;28;20124;-66
2023/01/26 16:51:09;;;;;;;4.68;2.95;;;;;;;-0.30;92.38;100728.53;5051992;28;20109;-65
2023/01/26 16:53:34;;;;;;;4.80;3.25;;;;;;;-0.27;93.10;100744.03;5052119;28;20044;-64
2023/01/26 16:56:01;;;;;;;4.65;2.67;;;;;;;-0.33;92.66;100739.19;5051931;28;20116;-65
2023/01/26 16:58:26;;;;;;;6.38;3.60;;;;;;;-0.28;93.32;100741.53;5050379;28;20036;-67
2023/01/26 17:00:53;;;;;;;6.07;3.72;;;;;;;-0.20;90.81;100747.13;5051885;28;20573;-67
2023/01/26 17:03:19;;;;;;;4.00;3.08;;;;;;;-0.17;89.98;100746.97;5052034;28;20397;-67
2023/01/26 17:05:44;;;;;;;6.30;3.78;;;;;;;-0.17;89.75;100744.34;5051710;28;20082;-66
2023/01/26 17:08:10;;;;;;;5.43;3.75;;;;;;;-0.13;90.82;100755.47;5051684;28;20045;-66
2023/01/26 17:10:36;;;;;;;6.38;3.28;;;;;;;-0.27;89.86;100749.28;5051641;28;20033;-67